Time;durP1;ratioP1;P1;durP2;ratioP2;P2;SDS_P1;SDS_P2;PMS_P1;PMS_P2;Temp;Humidity;BMP_temperature;BMP_pressure;BME280_temperature;BME280_humidity;BME280_pressure;Samples;Min_cycle;Max_cycle;Signal;HPM_P1;HPM_P2
2023/03/14 00:02:14;;;;;;;19.90;14.95;;;;;;;8.39;100.00;97191.98;1730927;81;21053;-67
2023/03/14 00:04:41;;;;;;;18.23;13.98;;;;;;;8.39;100.00;97196.36;1732487;81;21117;-69
2023/03/14 00:07:11;;;;;;;20.40;14.67;;;;;;;8.39;100.00;97189.37;1733175;81;21188;-75
2023/03/14 00:09:38;;;;;;;18.25;14.43;;;;;;;8.38;100.00;97202.48;1718048;81;21620;-75
2023/03/14 00:12:07;;;;;;;16.97;13.88;;;;;;;8.38;100.00;97194.68;1720034;81;20996;-77
2023/03/14 00:14:37;;;;;;;21.73;14.90;;;;;;;8.36;100.00;97187.47;1722686;81;21079;-77
2023/03/14 00:17:02;;;;;;;16.85;14.28;;;;;;;8.35;100.00;97181.92;1720707;81;21514;-76
2023/03/14 00:19:28;;;;;;;17.12;14.07;;;;;;;8.34;100.00;97206.25;1717494;81;21002;-76
2023/03/14 00:21:55;;;;;;;17.10;14.45;;;;;;;8.28;100.00;97190.18;1726863;81;21026;-74
2023/03/14 00:24:21;;;;;;;18.17;14.47;;;;;;;8.34;100.00;97180.25;1722858;81;21285;-76
2023/03/14 00:26:48;;;;;;;16.93;13.25;;;;;;;8.37;100.00;97180.01;1723452;81;21101;-76
2023/03/14 00:29:15;;;;;;;19.05;13.10;;;;;;;8.38;100.00;97181.69;1723469;81;21532;-75
2023/03/14 00:31:41;;;;;;;17.12;13.88;;;;;;;8.37;100.00;97183.91;1718808;81;21604;-75
2023/03/14 00:34:10;;;;;;;17.40;13.78;;;;;;;8.37;100.00;97178.23;1719749;81;21030;-73
2023/03/14 00:36:36;;;;;;;17.40;13.70;;;;;;;8.37;100.00;97171.73;1717634;81;21010;-77
2023/03/14 00:39:03;;;;;;;15.80;13.88;;;;;;;8.37;100.00;97173.51;1724995;81;21026;-75
2023/03/14 00:41:30;;;;;;;17.40;14.05;;;;;;;8.36;100.00;97176.59;1720321;81;21006;-68
2023/03/14 00:43:56;;;;;;;17.50;14.65;;;;;;;8.36;100.00;97170.56;1725569;81;21067;-76
2023/03/14 00:46:23;;;;;;;19.50;14.70;;;;;;;8.38;100.00;97168.68;1725788;81;21078;-72
2023/03/14 00:48:50;;;;;;;17.10;13.50;;;;;;;8.35;100.00;97168.92;1717230;80;21560;-72
2023/03/14 00:51:18;;;;;;;20.37;14.20;;;;;;;8.33;100.00;97173.41;1720088;81;21050;-70
2023/03/14 00:53:45;;;;;;;18.02;14.68;;;;;;;8.33;100.00;97170.81;1736196;80;21041;-69
2023/03/14 00:56:13;;;;;;;15.23;13.65;;;;;;;8.33;100.00;97170.81;1735302;80;21097;-72
2023/03/14 00:58:40;;;;;;;17.40;13.88;;;;;;;8.31;100.00;97165.72;1734651;80;21115;-72
2023/03/14 01:01:15;;;;;;;15.53;13.90;;;;;;;8.30;100.00;97174.48;1738247;80;20955;-72
2023/03/14 01:03:42;;;;;;;16.90;13.75;;;;;;;8.26;100.00;97171.30;1732702;80;21088;-71
2023/03/14 01:06:16;;;;;;;17.40;15.23;;;;;;;8.25;100.00;97177.42;1737721;80;21006;-75
2023/03/14 01:08:44;;;;;;;19.65;14.63;;;;;;;8.25;100.00;97167.03;1736410;80;21059;-68
2023/03/14 01:11:22;;;;;;;16.40;14.33;;;;;;;8.24;100.00;97149.79;1734289;80;20990;-66
2023/03/14 01:13:49;;;;;;;;;;;;;;;8.27;100.00;97159.95;1733943;80;21081;-76
2023/03/14 01:16:21;;;;;;;21.00;15.32;;;;;;;8.29;100.00;97167.64;1737060;80;20154;-73
2023/03/14 01:18:48;;;;;;;18.90;14.58;;;;;;;8.28;100.00;97151.19;1734539;80;21498;-75
2023/03/14 01:21:20;;;;;;;;;;;;;;;8.29;100.00;97152.86;1740111;81;22363;-75
2023/03/14 01:23:48;;;;;;;18.62;14.90;;;;;;;8.28;100.00;97153.78;1731999;80;20184;-75
2023/03/14 01:26:21;;;;;;;18.32;15.40;;;;;;;8.28;100.00;97142.56;1737529;80;21017;-75
2023/03/14 01:28:53;;;;;;;20.30;15.05;;;;;;;8.27;100.00;97135.25;1734166;80;21109;-74
2023/03/14 01:31:19;;;;;;;17.37;14.07;;;;;;;8.26;100.00;97150.50;1736684;81;21467;-75
2023/03/14 01:33:47;;;;;;;20.30;15.18;;;;;;;8.24;100.00;97148.97;1673872;83;21589;-68
2023/03/14 01:36:14;;;;;;;18.62;14.20;;;;;;;8.22;100.00;97146.47;1696625;84;21077;-74
2023/03/14 01:38:41;;;;;;;18.30;14.50;;;;;;;8.17;100.00;97147.78;1700222;84;21034;-75
2023/03/14 01:41:12;;;;;;;18.60;14.73;;;;;;;8.17;100.00;97143.41;1696439;83;20999;-72
2023/03/14 01:43:40;;;;;;;19.40;14.85;;;;;;;8.14;100.00;97147.55;1736417;81;21009;-76
2023/03/14 01:46:34;;;;;;;16.35;13.80;;;;;;;8.14;100.00;97143.65;1735032;81;21115;-70
2023/03/14 01:49:24;;;;;;;17.90;14.13;;;;;;;8.17;100.00;97139.98;1733747;80;20935;-76
2023/03/14 01:52:14;;;;;;;18.30;14.83;;;;;;;8.15;100.00;97127.13;1735113;80;20986;-76
2023/03/14 01:54:46;;;;;;;21.23;14.65;;;;;;;8.15;100.00;97115.43;1735072;80;21477;-75
2023/03/14 01:57:39;;;;;;;17.00;14.38;;;;;;;8.14;100.00;97117.66;1731800;80;20993;-76
2023/03/14 02:00:25;;;;;;;16.42;14.70;;;;;;;8.12;100.00;97111.75;1734664;80;21082;-75
2023/03/14 02:02:57;;;;;;;18.05;14.15;;;;;;;8.13;100.00;97108.70;1734050;80;21030;-76
2023/03/14 02:05:28;;;;;;;19.30;14.78;;;;;;;8.11;100.00;97099.71;1738286;80;21645;-75
2023/03/14 02:07:59;;;;;;;16.48;14.18;;;;;;;8.13;100.00;97092.62;1737818;80;21065;-73
2023/03/14 02:10:31;;;;;;;16.90;14.68;;;;;;;8.09;100.00;97101.59;1734210;80;21695;-69
2023/03/14 02:13:01;;;;;;;23.92;15.25;;;;;;;8.07;100.00;97108.71;1734930;80;21477;-72
2023/03/14 02:15:29;;;;;;;19.73;14.53;;;;;;;8.06;100.00;97097.94;1679174;84;21544;-75
2023/03/14 02:17:58;;;;;;;19.07;14.83;;;;;;;8.08;100.00;97097.36;1732496;81;21033;-75
2023/03/14 02:20:30;;;;;;;18.57;14.68;;;;;;;8.11;100.00;97092.39;1737987;81;21005;-75
2023/03/14 02:22:57;;;;;;;17.27;13.88;;;;;;;8.11;100.00;97076.32;1725530;81;21035;-75
2023/03/14 02:25:50;;;;;;;17.55;13.65;;;;;;;8.11;100.00;97093.21;1729861;81;21072;-74
2023/03/14 02:28:17;;;;;;;18.30;14.68;;;;;;;8.11;100.00;97081.52;1736140;81;21033;-76
2023/03/14 02:30:45;;;;;;;17.52;14.03;;;;;;;8.09;100.00;97067.81;1739196;80;20959;-76
2023/03/14 02:33:18;;;;;;;;;;;;;;;7.91;100.00;97038.11;1734435;80;21038;-75
2023/03/14 02:35:53;;;;;;;22.20;15.18;;;;;;;8.09;100.00;97060.02;1733648;80;20230;-76
2023/03/14 02:38:55;;;;;;;15.78;13.75;;;;;;;8.07;100.00;97080.13;1735093;80;21061;-74
2023/03/14 02:41:22;;;;;;;18.30;15.20;;;;;;;8.05;100.00;97095.83;1738979;80;20958;-67
2023/03/14 02:43:49;;;;;;;17.90;14.40;;;;;;;8.06;100.00;97092.75;1728002;80;21123;-74
2023/03/14 02:46:20;;;;;;;17.57;14.65;;;;;;;8.07;100.00;97089.22;1732698;80;20963;-74
2023/03/14 02:48:55;;;;;;;19.70;13.78;;;;;;;8.10;100.00;97103.27;1735486;80;21575;-75
2023/03/14 02:51:24;;;;;;;16.90;14.07;;;;;;;8.11;100.00;97107.51;1736478;80;21085;-74
2023/03/14 02:53:50;;;;;;;17.45;14.23;;;;;;;8.10;100.00;97116.27;1722328;81;21042;-71
2023/03/14 02:56:17;;;;;;;16.45;13.72;;;;;;;8.11;100.00;97113.19;1737849;81;21452;-68
2023/03/14 02:58:44;;;;;;;18.37;14.30;;;;;;;8.10;100.00;97105.87;1736756;81;21485;-75
2023/03/14 03:01:10;;;;;;;19.02;13.53;;;;;;;8.10;100.00;97118.05;1739260;80;21073;-66
2023/03/14 03:03:37;;;;;;;17.25;14.03;;;;;;;8.12;100.00;97126.52;1737707;80;21007;-75
2023/03/14 03:06:05;;;;;;;15.47;13.27;;;;;;;8.12;100.00;97137.73;1740531;80;21255;-76
2023/03/14 03:08:32;;;;;;;16.30;14.25;;;;;;;8.12;100.00;97115.64;1738558;81;21049;-76
2023/03/14 03:10:59;;;;;;;16.77;13.10;;;;;;;8.13;100.00;97121.22;1739162;80;21320;-75
2023/03/14 03:13:26;;;;;;;;;;;;;;;8.14;100.00;97120.26;1737910;80;20926;-76
2023/03/14 03:15:53;;;;;;;20.55;13.40;;;;;;;8.12;100.00;97119.55;1739030;80;20152;-76
2023/03/14 03:18:20;;;;;;;15.90;14.00;;;;;;;8.11;100.00;97135.27;1743898;80;20970;-75
2023/03/14 03:20:47;;;;;;;14.73;11.53;;;;;;;8.09;100.00;97135.38;1725901;81;21042;-76
2023/03/14 03:23:14;;;;;;;15.38;12.50;;;;;;;7.96;100.00;97126.91;1724395;81;21651;-76
2023/03/14 03:25:40;;;;;;;17.13;12.00;;;;;;;7.96;100.00;97126.91;1725053;81;21018;-76
2023/03/14 03:28:10;;;;;;;15.63;12.60;;;;;;;8.07;100.00;97139.89;1721782;81;21490;-75
2023/03/14 03:30:41;;;;;;;15.32;13.10;;;;;;;8.05;100.00;97139.18;1721755;81;21514;-66
2023/03/14 03:33:09;;;;;;;16.57;13.35;;;;;;;8.03;100.00;97137.16;1723058;81;21026;-76
2023/03/14 03:35:47;;;;;;;15.80;12.65;;;;;;;8.08;100.00;97164.92;1723718;81;21041;-76
2023/03/14 03:38:15;;;;;;;17.62;13.53;;;;;;;8.10;100.00;97157.84;1726689;81;21090;-72
2023/03/14 03:40:42;;;;;;;12.90;11.60;;;;;;;8.07;100.00;97147.69;1723596;81;21042;-73
2023/03/14 03:43:08;;;;;;;17.37;12.23;;;;;;;8.10;100.00;97152.64;1724986;81;20975;-76
2023/03/14 03:45:36;;;;;;;12.70;11.20;;;;;;;8.13;100.00;97155.00;1726153;82;21090;-73
2023/03/14 03:48:03;;;;;;;14.85;12.20;;;;;;;8.13;100.00;97156.30;1727939;82;21141;-75
2023/03/14 03:50:29;;;;;;;14.68;11.88;;;;;;;8.10;100.00;97126.66;1722666;82;21544;-76
2023/03/14 03:52:56;;;;;;;14.73;12.55;;;;;;;8.15;100.00;97128.88;1725554;81;21106;-76
2023/03/14 03:55:27;;;;;;;16.05;10.82;;;;;;;8.15;100.00;97132.33;1724962;82;21113;-75
2023/03/14 03:57:54;;;;;;;12.63;10.95;;;;;;;8.15;100.00;97131.03;1718758;81;21581;-75
2023/03/14 04:00:21;;;;;;;14.15;10.60;;;;;;;8.17;100.00;97120.02;1725655;81;21553;-75
2023/03/14 04:02:48;;;;;;;15.68;11.57;;;;;;;8.19;100.00;97123.33;1728161;81;21073;-77
2023/03/14 04:05:16;;;;;;;14.28;10.53;;;;;;;8.22;100.00;97128.28;1725111;81;20986;-74
2023/03/14 04:07:42;;;;;;;12.67;10.33;;;;;;;8.24;100.00;97112.09;1721848;81;21020;-69
2023/03/14 04:10:10;;;;;;;12.10;10.23;;;;;;;8.27;100.00;97120.95;1733642;81;21116;-74
2023/03/14 04:12:37;;;;;;;12.82;9.65;;;;;;;8.29;100.00;97119.06;1733940;81;21635;-76
2023/03/14 04:15:06;;;;;;;13.48;9.88;;;;;;;8.29;100.00;97104.77;1704324;83;21038;-75
2023/03/14 04:17:32;;;;;;;14.20;10.65;;;;;;;8.30;100.00;97102.50;1734893;81;21477;-76
2023/03/14 04:19:59;;;;;;;15.65;10.80;;;;;;;8.32;100.00;97101.55;1735094;81;21082;-76
2023/03/14 04:22:26;;;;;;;13.83;10.83;;;;;;;8.33;100.00;97100.62;1730107;81;21044;-76
2023/03/14 04:24:53;;;;;;;12.10;10.43;;;;;;;8.35;100.00;97088.33;1734529;81;21053;-76
2023/03/14 04:27:19;;;;;;;19.10;12.25;;;;;;;8.34;100.00;97078.38;1737833;81;21005;-70
2023/03/14 04:29:46;;;;;;;17.73;13.22;;;;;;;8.35;100.00;97072.73;1728463;81;21451;-75
2023/03/14 04:32:12;;;;;;;16.90;12.28;;;;;;;8.33;100.00;97078.52;1733033;81;21450;-75
2023/03/14 04:34:39;;;;;;;17.80;11.53;;;;;;;8.33;100.00;97075.92;1731514;81;21587;-75
2023/03/14 04:37:06;;;;;;;14.68;10.82;;;;;;;8.33;100.00;97085.02;1731461;81;20939;-76
2023/03/14 04:39:32;;;;;;;11.80;9.33;;;;;;;8.29;100.00;97074.05;1730926;81;20974;-75
2023/03/14 04:42:00;;;;;;;12.35;10.03;;;;;;;8.26;100.00;97063.87;1710979;82;21094;-76
2023/03/14 04:44:27;;;;;;;13.43;10.00;;;;;;;8.24;100.00;97053.61;1734568;81;21023;-75
2023/03/14 04:46:53;;;;;;;15.30;10.25;;;;;;;8.23;100.00;97054.57;1737202;81;21013;-75
2023/03/14 04:49:20;;;;;;;13.70;9.75;;;;;;;8.22;100.00;97051.59;1731962;81;21055;-66
2023/03/14 04:51:47;;;;;;;14.50;9.27;;;;;;;8.22;100.00;97042.50;1738448;81;20966;-76
2023/03/14 04:54:15;;;;;;;10.45;8.78;;;;;;;8.23;100.00;97037.67;1708805;82;21066;-75
2023/03/14 04:56:42;;;;;;;11.83;8.75;;;;;;;8.26;100.00;97036.13;1705650;83;21097;-76
2023/03/14 04:59:09;;;;;;;9.35;8.20;;;;;;;8.27;100.00;97040.36;1679565;83;21530;-75
2023/03/14 05:01:40;;;;;;;13.50;8.83;;;;;;;8.27;100.00;97040.36;1733743;81;21006;-67
2023/03/14 05:04:07;;;;;;;12.63;8.53;;;;;;;8.29;100.00;97043.67;1730106;81;21073;-76
2023/03/14 05:06:37;;;;;;;9.43;8.15;;;;;;;8.30;100.00;97041.41;1709927;82;21079;-75
2023/03/14 05:09:06;;;;;;;8.23;7.22;;;;;;;8.29;100.00;97033.27;1705447;83;21120;-76
2023/03/14 05:11:32;;;;;;;10.23;7.65;;;;;;;8.33;100.00;97030.42;1751236;80;21070;-69
2023/03/14 05:14:02;;;;;;;11.43;7.90;;;;;;;8.34;100.00;97042.45;1714974;82;22368;-75
2023/03/14 05:16:27;;;;;;;11.63;7.50;;;;;;;8.35;100.00;97031.13;1750051;80;21002;-75
2023/03/14 05:18:55;;;;;;;12.05;7.58;;;;;;;8.36;100.00;97024.97;1751019;80;21053;-75
2023/03/14 05:21:26;;;;;;;12.05;7.67;;;;;;;8.39;100.00;97014.34;1748347;80;20994;-72
2023/03/14 05:23:53;;;;;;;12.15;7.60;;;;;;;8.39;100.00;97007.85;1748708;80;21678;-73
2023/03/14 05:26:20;;;;;;;11.63;7.80;;;;;;;8.40;100.00;97010.79;1754187;80;21567;-75
2023/03/14 05:28:50;;;;;;;9.57;7.23;;;;;;;8.41;100.00;97011.16;1724950;81;21053;-76
2023/03/14 05:31:16;;;;;;;8.18;6.80;;;;;;;8.42;100.00;97019.30;1753221;80;21828;-78
2023/03/14 05:33:52;;;;;;;10.78;6.85;;;;;;;8.44;100.00;97014.80;1750450;80;20982;-74
2023/03/14 05:36:20;;;;;;;7.65;6.53;;;;;;;8.47;100.00;97022.35;1748530;80;20990;-75
2023/03/14 05:38:47;;;;;;;9.20;6.90;;;;;;;8.50;100.00;97022.09;1749013;80;21088;-77
2023/03/14 05:41:14;;;;;;;9.53;7.05;;;;;;;8.53;100.00;97034.03;1751485;80;21006;-76
2023/03/14 05:43:40;;;;;;;11.88;6.95;;;;;;;8.55;100.00;97030.36;1752043;80;21533;-74
2023/03/14 05:46:07;;;;;;;7.78;6.60;;;;;;;8.56;100.00;97030.69;1754253;80;21131;-75
2023/03/14 05:48:33;;;;;;;10.10;7.12;;;;;;;8.59;100.00;97036.94;1749939;80;21051;-73
2023/03/14 05:51:02;;;;;;;8.00;6.30;;;;;;;8.63;100.00;97047.46;1748100;80;21100;-73
2023/03/14 05:53:30;;;;;;;9.33;6.42;;;;;;;8.60;100.00;97046.41;1733360;81;21596;-77
2023/03/14 05:55:57;;;;;;;7.87;6.30;;;;;;;8.67;100.00;97039.73;1726228;81;21144;-75
2023/03/14 05:58:26;;;;;;;8.13;6.55;;;;;;;8.72;100.00;97040.19;1726528;81;21069;-71
2023/03/14 06:00:56;;;;;;;6.72;5.92;;;;;;;8.79;100.00;97042.28;1732741;81;21133;-76
2023/03/14 06:03:21;;;;;;;8.15;5.97;;;;;;;8.83;100.00;97048.90;1733881;81;21073;-75
2023/03/14 06:05:51;;;;;;;8.97;5.20;;;;;;;8.83;100.00;97056.70;1726943;81;21032;-75
2023/03/14 06:08:18;;;;;;;6.53;5.30;;;;;;;8.84;100.00;97043.55;1733480;81;21035;-70
2023/03/14 06:10:45;;;;;;;10.48;6.70;;;;;;;8.87;100.00;97043.78;1737975;80;21093;-76
2023/03/14 06:13:11;;;;;;;8.38;5.25;;;;;;;8.89;100.00;97040.58;1746950;80;21183;-77
2023/03/14 06:15:38;;;;;;;9.40;7.08;;;;;;;8.93;100.00;97047.16;1739104;80;21156;-76
2023/03/14 06:18:04;;;;;;;10.72;6.50;;;;;;;9.00;100.00;97056.12;1745417;80;21508;-70
2023/03/14 06:20:32;;;;;;;7.93;6.47;;;;;;;9.06;100.00;97062.59;1739293;80;21486;-75
2023/03/14 06:22:59;;;;;;;9.23;6.00;;;;;;;9.10;100.00;97054.41;1742762;80;21568;-76
2023/03/14 06:25:26;;;;;;;8.60;5.45;;;;;;;9.15;100.00;97049.63;1739036;80;21532;-73
2023/03/14 06:27:52;;;;;;;7.15;5.45;;;;;;;9.14;100.00;97042.78;1717010;82;21115;-68
2023/03/14 06:30:19;;;;;;;7.10;5.47;;;;;;;9.15;100.00;97041.81;1717604;83;21061;-75
2023/03/14 06:32:45;;;;;;;6.55;4.97;;;;;;;9.24;100.00;97053.23;1754251;80;21044;-74
2023/03/14 06:35:12;;;;;;;5.85;5.10;;;;;;;9.26;100.00;97058.31;1753093;80;20977;-74
2023/03/14 06:37:39;;;;;;;6.45;5.28;;;;;;;9.31;100.00;97043.14;1748239;80;21405;-72
2023/03/14 06:40:08;;;;;;;7.17;5.40;;;;;;;9.34;100.00;97050.69;1753922;80;21623;-75
2023/03/14 06:42:34;;;;;;;9.00;5.65;;;;;;;9.37;100.00;97059.54;1744123;80;21026;-70
2023/03/14 06:45:04;;;;;;;12.03;6.65;;;;;;;9.41;100.00;97059.64;1715426;83;21109;-73
2023/03/14 06:47:31;;;;;;;5.75;4.80;;;;;;;9.44;100.00;97056.77;1743960;81;21042;-75
2023/03/14 06:49:57;;;;;;;6.42;4.80;;;;;;;9.49;100.00;97049.85;1745347;80;21044;-70
2023/03/14 06:52:24;;;;;;;8.83;5.47;;;;;;;9.52;100.00;97056.95;1741258;81;21017;-73
2023/03/14 06:54:51;;;;;;;6.83;4.95;;;;;;;9.56;100.00;97053.11;1745273;80;21037;-68
2023/03/14 06:57:17;;;;;;;7.47;5.33;;;;;;;9.60;100.00;97051.87;1742995;80;20982;-69
2023/03/14 06:59:44;;;;;;;6.45;5.45;;;;;;;9.68;100.00;97047.80;1740023;80;21104;-67
2023/03/14 07:02:12;;;;;;;13.00;6.00;;;;;;;9.79;100.00;97041.19;1743481;80;20998;-70
2023/03/14 07:04:39;;;;;;;6.22;5.17;;;;;;;9.92;100.00;97045.69;1746428;81;21029;-70
2023/03/14 07:07:06;;;;;;;8.48;5.65;;;;;;;10.05;100.00;97047.58;1743006;80;21066;-73
2023/03/14 07:09:36;;;;;;;6.17;4.62;;;;;;;10.17;100.00;97051.36;1742243;82;21135;-65
2023/03/14 07:12:04;;;;;;;8.88;6.28;;;;;;;10.32;100.00;97060.45;1723738;82;21585;-67
2023/03/14 07:14:33;;;;;;;9.98;5.92;;;;;;;10.44;100.00;97061.15;1728617;82;21046;-70
2023/03/14 07:16:59;;;;;;;10.60;6.47;;;;;;;10.53;100.00;97068.17;1721070;81;21121;-69
2023/03/14 07:19:26;;;;;;;9.28;5.37;;;;;;;10.63;100.00;97068.16;1726121;82;21114;-68
2023/03/14 07:21:52;;;;;;;11.20;6.23;;;;;;;10.71;100.00;97055.25;1727105;82;21549;-80
2023/03/14 07:24:19;;;;;;;6.30;4.20;;;;;;;10.80;100.00;97049.19;1729249;80;21541;-68
2023/03/14 07:26:46;;;;;;;4.85;3.90;;;;;;;10.87;100.00;97034.63;1727181;82;21110;-68
2023/03/14 07:29:12;;;;;;;6.27;3.40;;;;;;;11.01;100.00;97032.06;1726601;82;21097;-68
2023/03/14 07:31:40;;;;;;;3.62;3.02;;;;;;;11.15;100.00;97029.49;1724032;82;21580;-72
2023/03/14 07:34:07;;;;;;;4.42;3.25;;;;;;;11.24;100.00;97027.81;1726289;82;21101;-71
2023/03/14 07:36:34;;;;;;;2.98;2.72;;;;;;;11.34;100.00;97016.83;1728572;82;20991;-71
2023/03/14 07:39:00;;;;;;;3.87;2.97;;;;;;;11.51;100.00;97017.86;1726012;82;20972;-69
2023/03/14 07:41:27;;;;;;;2.83;2.53;;;;;;;11.65;100.00;97013.48;1725247;82;21030;-71
2023/03/14 07:43:54;;;;;;;5.58;3.22;;;;;;;11.74;100.00;97008.69;1733069;82;21121;-72
2023/03/14 07:46:21;;;;;;;3.87;3.20;;;;;;;11.80;100.00;97004.17;1742863;81;21520;-70
2023/03/14 07:48:48;;;;;;;4.70;3.70;;;;;;;11.86;100.00;97003.61;1744388;81;21039;-69
2023/03/14 07:51:14;;;;;;;5.87;2.80;;;;;;;12.02;100.00;97012.62;1741967;81;20994;-67
2023/03/14 07:53:42;;;;;;;6.12;3.22;;;;;;;12.17;100.00;97005.89;1737657;81;21612;-71
2023/03/14 07:56:10;;;;;;;3.80;2.87;;;;;;;12.42;100.00;97000.89;1738279;81;21300;-71
2023/03/14 07:58:36;;;;;;;5.83;3.40;;;;;;;12.68;100.00;97004.36;1740597;81;21010;-70
2023/03/14 08:01:08;;;;;;;3.23;2.93;;;;;;;12.76;100.00;96996.57;1744397;81;21124;-70
2023/03/14 08:03:34;;;;;;;5.87;2.90;;;;;;;12.98;100.00;96999.67;1744594;81;21520;-70
2023/03/14 08:06:04;;;;;;;3.98;3.08;;;;;;;12.98;100.00;96989.20;1738890;81;21133;-71
2023/03/14 08:08:30;;;;;;;4.60;2.90;;;;;;;13.07;100.00;96982.20;1740215;81;20923;-70
2023/03/14 08:11:08;;;;;;;2.73;2.50;;;;;;;13.08;100.00;96981.22;1740817;81;20995;-71
2023/03/14 08:13:36;;;;;;;4.30;2.90;;;;;;;12.98;100.00;96976.10;1728144;82;21530;-70
2023/03/14 08:16:06;;;;;;;4.22;2.87;;;;;;;12.93;100.00;96971.81;1722533;82;21379;-72
2023/03/14 08:18:33;;;;;;;3.62;2.65;;;;;;;12.95;100.00;96973.80;1722501;82;21031;-70
2023/03/14 08:20:59;;;;;;;3.62;2.72;;;;;;;13.06;100.00;96955.20;1729683;82;21522;-74
2023/03/14 08:23:26;;;;;;;3.00;2.70;;;;;;;13.35;100.00;96957.48;1725877;82;21098;-71
2023/03/14 08:25:53;;;;;;;4.40;2.50;;;;;;;13.59;100.00;96959.39;1726703;82;21450;-69
2023/03/14 08:28:19;;;;;;;2.90;2.60;;;;;;;13.69;100.00;96957.94;1728959;82;21013;-70
2023/03/14 08:30:46;;;;;;;5.97;2.70;;;;;;;13.77;100.00;96951.90;1728077;81;20939;-71
2023/03/14 08:33:12;;;;;;;3.10;2.67;;;;;;;13.77;100.00;96956.65;1729521;81;20956;-70
2023/03/14 08:35:39;;;;;;;4.50;3.00;;;;;;;13.70;100.00;96962.71;1720504;81;21090;-70
2023/03/14 08:38:06;;;;;;;5.53;3.50;;;;;;;13.55;100.00;96964.60;1701313;82;21559;-70
2023/03/14 08:40:32;;;;;;;4.80;2.93;;;;;;;13.45;100.00;96966.55;1704436;83;21006;-79
2023/03/14 08:43:02;;;;;;;3.83;3.08;;;;;;;13.46;100.00;96964.25;1735574;80;21707;-73
2023/03/14 08:45:28;;;;;;;6.47;3.22;;;;;;;13.48;100.00;96960.98;1739963;80;21528;-78
2023/03/14 08:47:55;;;;;;;4.35;3.22;;;;;;;13.57;100.00;96969.20;1739279;80;21032;-77
2023/03/14 08:50:23;;;;;;;6.03;3.13;;;;;;;13.65;100.00;96962.69;1739960;80;21069;-71
2023/03/14 08:52:49;;;;;;;3.98;3.02;;;;;;;13.70;100.00;96960.91;1703215;84;21766;-71
2023/03/14 08:55:16;;;;;;;4.63;3.10;;;;;;;13.71;100.00;96965.16;1701512;83;21005;-70
2023/03/14 08:57:42;;;;;;;4.25;3.45;;;;;;;13.74;100.00;96978.44;1696433;83;21221;-70
2023/03/14 09:00:15;;;;;;;4.13;3.50;;;;;;;13.60;100.00;96995.11;1700918;82;21102;-67
2023/03/14 09:02:40;;;;;;;4.55;3.55;;;;;;;13.59;100.00;96998.72;1669533;84;21046;-69
2023/03/14 09:05:08;;;;;;;4.28;3.37;;;;;;;13.81;100.00;96984.70;1722130;82;20948;-69
2023/03/14 09:07:34;;;;;;;5.33;3.45;;;;;;;14.01;100.00;96979.50;1723699;81;20982;-70
2023/03/14 09:10:01;;;;;;;3.60;3.30;;;;;;;14.04;100.00;96983.61;1724250;81;22305;-69
2023/03/14 09:12:44;;;;;;;3.70;3.40;;;;;;;14.12;100.00;96990.69;1725015;81;21671;-70
2023/03/14 09:15:34;;;;;;;3.12;2.65;;;;;;;14.18;100.00;96991.34;1698560;82;21046;-69
2023/03/14 09:18:05;;;;;;;6.83;3.42;;;;;;;14.24;100.00;96985.44;1663483;84;21154;-69
2023/03/14 09:20:50;;;;;;;5.35;3.58;;;;;;;14.12;100.00;96977.56;1640841;86;21063;-69
2023/03/14 09:23:24;;;;;;;4.30;3.50;;;;;;;14.16;100.00;96988.05;1626299;86;21191;-69
2023/03/14 09:26:00;;;;;;;6.22;4.35;;;;;;;14.17;100.00;96993.62;1639766;86;21110;-70
2023/03/14 09:28:41;;;;;;;5.22;3.45;;;;;;;14.07;100.00;96991.97;1638052;86;21039;-69
2023/03/14 09:31:17;;;;;;;7.00;3.58;;;;;;;13.88;100.00;96998.81;1639534;86;21048;-70
2023/03/14 09:33:47;;;;;;;6.30;3.65;;;;;;;13.77;100.00;97000.41;1616451;86;21065;-70
2023/03/14 09:36:14;;;;;;;4.85;3.67;;;;;;;13.68;100.00;97004.00;1642724;86;21113;-70
2023/03/14 09:38:43;;;;;;;4.67;3.70;;;;;;;13.57;100.00;97013.77;1639627;86;21069;-68
2023/03/14 09:41:32;;;;;;;4.83;3.42;;;;;;;13.37;100.00;97015.00;1642632;86;21599;-65
2023/03/14 09:44:19;;;;;;;6.95;4.05;;;;;;;13.26;100.00;97008.22;1639820;86;21054;-69
2023/03/14 09:46:48;;;;;;;;;;;;;;;13.15;100.00;96989.63;1643011;86;21635;-76
2023/03/14 09:49:23;;;;;;;6.58;4.37;;;;;;;13.26;100.00;96986.44;1619670;86;20329;-72
2023/03/14 09:51:54;;;;;;;6.25;4.70;;;;;;;13.41;100.00;96995.34;1647991;86;21009;-68
2023/03/14 09:54:44;;;;;;;13.68;5.33;;;;;;;13.49;100.00;96989.33;1607909;86;20970;-67
2023/03/14 09:57:20;;;;;;;8.00;5.60;;;;;;;13.56;100.00;96980.69;1589354;86;21141;-70
2023/03/14 09:59:55;;;;;;;6.10;3.95;;;;;;;13.87;100.00;96972.26;1639770;86;21097;-71
2023/03/14 10:02:25;;;;;;;6.25;4.45;;;;;;;14.08;100.00;96969.98;1640230;86;21066;-70
2023/03/14 10:04:54;;;;;;;8.25;4.12;;;;;;;14.26;100.00;96977.73;1643834;86;21128;-69
2023/03/14 10:07:32;;;;;;;4.45;3.70;;;;;;;14.42;100.00;96982.16;1639066;86;21039;-68
2023/03/14 10:10:02;;;;;;;4.40;3.70;;;;;;;14.61;100.00;96980.23;1631411;86;21102;-69
2023/03/14 10:12:35;;;;;;;4.95;4.15;;;;;;;14.79;100.00;96978.27;1637648;86;21081;-71
2023/03/14 10:15:09;;;;;;;5.58;4.00;;;;;;;14.97;100.00;96978.88;1618468;86;22100;-71
2023/03/14 10:17:46;;;;;;;5.80;4.15;;;;;;;14.91;100.00;96991.88;1641058;86;21638;-70
2023/03/14 10:20:36;;;;;;;4.17;3.75;;;;;;;14.95;100.00;96997.92;1648038;84;21015;-71
2023/03/14 10:23:18;;;;;;;8.50;4.50;;;;;;;14.86;100.00;97004.18;1682857;83;21177;-71
2023/03/14 10:25:54;;;;;;;8.23;4.55;;;;;;;14.70;100.00;96998.94;1686781;83;21501;-66
2023/03/14 10:28:29;;;;;;;7.55;4.17;;;;;;;14.51;100.00;97007.45;1681989;83;21561;-66
2023/03/14 10:31:00;;;;;;;5.10;4.08;;;;;;;14.37;100.00;97009.41;1681794;83;21113;-66
2023/03/14 10:33:34;;;;;;;7.53;4.05;;;;;;;14.12;100.00;97006.42;1663345;84;21096;-66
2023/03/14 10:36:21;;;;;;;8.08;4.37;;;;;;;14.08;100.00;97001.47;1688508;83;21010;-66
2023/03/14 10:38:48;;;;;;;5.20;3.77;;;;;;;14.05;100.00;96996.55;1685602;83;21021;-66
2023/03/14 10:41:27;;;;;;;8.45;4.95;;;;;;;13.93;100.00;96997.84;1689519;83;21077;-66
2023/03/14 10:43:57;;;;;;;5.42;4.65;;;;;;;13.84;100.00;96993.56;1687737;83;21069;-67
2023/03/14 10:46:27;;;;;;;5.10;3.72;;;;;;;13.89;100.00;97001.75;1685965;83;21106;-66
2023/03/14 10:48:54;;;;;;;5.97;3.08;;;;;;;14.08;100.00;96988.35;1666599;83;21512;-65
2023/03/14 10:51:30;;;;;;;4.22;3.08;;;;;;;14.19;100.00;96982.48;1685891;83;21635;-66
2023/03/14 10:54:01;;;;;;;4.87;3.20;;;;;;;14.30;100.00;96975.60;1687474;83;21037;-66
2023/03/14 10:56:35;;;;;;;3.58;3.17;;;;;;;14.36;100.00;96968.37;1686451;83;21560;-65
2023/03/14 10:59:10;;;;;;;6.75;3.25;;;;;;;14.32;100.00;96965.77;1680901;83;21078;-62
2023/03/14 11:01:59;;;;;;;4.05;2.87;;;;;;;14.29;100.00;96966.09;1681422;83;21080;-66
2023/03/14 11:05:04;;;;;;;5.65;3.10;;;;;;;14.31;100.00;96956.23;1686773;83;21030;-66
2023/03/14 11:07:39;;;;;;;5.00;2.90;;;;;;;14.42;100.00;96953.28;1684430;83;21002;-66
2023/03/14 11:10:39;;;;;;;3.30;2.58;;;;;;;14.54;100.00;96961.20;1652222;83;21505;-66
2023/03/14 11:16:21;;;;;;;3.33;2.40;;;;;;;14.52;100.00;96965.80;1652742;84;21068;-65
2023/03/14 11:19:02;;;;;;;3.52;2.62;;;;;;;14.40;100.00;96951.34;1706870;82;21034;-65
2023/03/14 11:22:07;;;;;;;5.15;2.80;;;;;;;14.36;100.00;96953.94;1706714;82;21077;-65
2023/03/14 11:24:52;;;;;;;7.28;2.37;;;;;;;14.41;100.00;96951.66;1704240;82;21041;-65
2023/03/14 11:27:45;;;;;;;3.30;2.10;;;;;;;15.11;100.00;96947.66;1705756;82;21049;-65
2023/03/14 11:30:34;;;;;;;4.45;2.12;;;;;;;15.37;100.00;96949.52;1693156;82;21156;-66
2023/03/14 11:33:26;;;;;;;4.85;2.40;;;;;;;15.30;100.00;96947.27;1708762;82;22348;-65
2023/03/14 11:36:09;;;;;;;4.62;2.30;;;;;;;15.35;100.00;96933.12;1719433;81;21006;-67
2023/03/14 11:38:52;;;;;;;3.33;2.22;;;;;;;15.40;100.00;96933.44;1714045;81;21090;-67
2023/03/14 11:41:40;;;;;;;3.02;1.87;;;;;;;15.88;100.00;96934.20;1702255;82;20943;-65
2023/03/14 11:44:23;;;;;;;4.15;2.20;;;;;;;16.50;100.00;96936.39;1717615;82;20970;-70